sensor_id;sensor_type;location;lat;lon;timestamp;P1;durP1;ratioP1;P2;durP2;ratioP2
55368;SDS011;41247;49.736;8.752;2023-11-19T00:02:26;3.08;;;2.58;;
55368;SDS011;41247;49.736;8.752;2023-11-19T00:06:16;3.92;;;2.30;;
55368;SDS011;41247;49.736;8.752;2023-11-19T00:09:57;2.65;;;2.00;;
55368;SDS011;41247;49.736;8.752;2023-11-19T00:13:37;2.95;;;2.10;;
55368;SDS011;41247;49.736;8.752;2023-11-19T00:17:18;2.47;;;1.90;;
55368;SDS011;41247;49.736;8.752;2023-11-19T00:20:58;3.42;;;2.05;;
55368;SDS011;41247;49.736;8.752;2023-11-19T00:24:39;2.25;;;1.65;;
55368;SDS011;41247;49.736;8.752;2023-11-19T00:28:20;2.20;;;1.60;;
55368;SDS011;41247;49.736;8.752;2023-11-19T00:32:00;6.03;;;1.73;;
55368;SDS011;41247;49.736;8.752;2023-11-19T00:35:41;1.55;;;1.42;;
55368;SDS011;41247;49.736;8.752;2023-11-19T00:39:21;2.80;;;1.73;;
55368;SDS011;41247;49.736;8.752;2023-11-19T00:43:02;2.15;;;1.75;;
55368;SDS011;41247;49.736;8.752;2023-11-19T00:46:43;4.00;;;1.65;;
55368;SDS011;41247;49.736;8.752;2023-11-19T00:50:23;3.30;;;1.95;;
55368;SDS011;41247;49.736;8.752;2023-11-19T00:54:04;2.17;;;1.67;;
55368;SDS011;41247;49.736;8.752;2023-11-19T00:57:45;1.80;;;1.20;;
55368;SDS011;41247;49.736;8.752;2023-11-19T01:01:32;1.23;;;1.05;;
55368;SDS011;41247;49.736;8.752;2023-11-19T01:05:13;2.25;;;1.15;;
55368;SDS011;41247;49.736;8.752;2023-11-19T01:08:54;0.80;;;0.80;;
55368;SDS011;41247;49.736;8.752;2023-11-19T01:12:34;2.35;;;0.98;;
55368;SDS011;41247;49.736;8.752;2023-11-19T01:16:15;2.35;;;0.90;;
55368;SDS011;41247;49.736;8.752;2023-11-19T01:19:56;1.08;;;0.80;;
55368;SDS011;41247;49.736;8.752;2023-11-19T01:23:37;0.95;;;0.80;;
55368;SDS011;41247;49.736;8.752;2023-11-19T01:27:18;1.15;;;0.80;;
55368;SDS011;41247;49.736;8.752;2023-11-19T01:30:58;0.65;;;0.57;;
55368;SDS011;41247;49.736;8.752;2023-11-19T01:34:39;0.60;;;0.55;;
55368;SDS011;41247;49.736;8.752;2023-11-19T01:38:21;1.17;;;0.98;;
55368;SDS011;41247;49.736;8.752;2023-11-19T01:42:01;0.70;;;0.52;;
55368;SDS011;41247;49.736;8.752;2023-11-19T01:45:56;1.52;;;0.60;;
55368;SDS011;41247;49.736;8.752;2023-11-19T01:49:37;1.40;;;0.80;;
55368;SDS011;41247;49.736;8.752;2023-11-19T01:53:17;0.90;;;0.80;;
55368;SDS011;41247;49.736;8.752;2023-11-19T01:56:59;0.68;;;0.60;;
55368;SDS011;41247;49.736;8.752;2023-11-19T02:00:39;0.95;;;0.73;;
55368;SDS011;41247;49.736;8.752;2023-11-19T02:04:20;0.93;;;0.73;;
55368;SDS011;41247;49.736;8.752;2023-11-19T02:08:01;0.40;;;0.40;;
55368;SDS011;41247;49.736;8.752;2023-11-19T02:11:42;2.25;;;1.25;;
55368;SDS011;41247;49.736;8.752;2023-11-19T02:15:22;0.73;;;0.32;;
55368;SDS011;41247;49.736;8.752;2023-11-19T02:19:03;0.63;;;0.50;;
55368;SDS011;41247;49.736;8.752;2023-11-19T02:22:43;1.00;;;0.80;;
55368;SDS011;41247;49.736;8.752;2023-11-19T02:27:10;0.90;;;0.80;;
55368;SDS011;41247;49.736;8.752;2023-11-19T02:30:45;2.97;;;0.73;;
55368;SDS011;41247;49.736;8.752;2023-11-19T02:34:26;0.70;;;0.70;;
55368;SDS011;41247;49.736;8.752;2023-11-19T02:38:07;1.00;;;0.80;;
55368;SDS011;41247;49.736;8.752;2023-11-19T02:41:47;0.90;;;0.80;;
55368;SDS011;41247;49.736;8.752;2023-11-19T02:45:28;4.05;;;0.63;;
55368;SDS011;41247;49.736;8.752;2023-11-19T02:49:08;1.33;;;0.70;;
55368;SDS011;41247;49.736;8.752;2023-11-19T02:52:49;0.70;;;0.65;;
55368;SDS011;41247;49.736;8.752;2023-11-19T02:56:31;0.93;;;0.80;;
55368;SDS011;41247;49.736;8.752;2023-11-19T03:00:13;0.57;;;0.50;;
55368;SDS011;41247;49.736;8.752;2023-11-19T03:04:00;1.08;;;0.50;;
55368;SDS011;41247;49.736;8.752;2023-11-19T03:07:44;0.73;;;0.68;;
55368;SDS011;41247;49.736;8.752;2023-11-19T03:11:24;0.45;;;0.45;;
55368;SDS011;41247;49.736;8.752;2023-11-19T03:15:05;1.95;;;0.40;;
55368;SDS011;41247;49.736;8.752;2023-11-19T03:18:46;0.68;;;0.40;;
55368;SDS011;41247;49.736;8.752;2023-11-19T03:22:27;2.47;;;0.70;;
55368;SDS011;41247;49.736;8.752;2023-11-19T03:26:07;2.15;;;1.20;;
55368;SDS011;41247;49.736;8.752;2023-11-19T03:29:50;0.80;;;0.70;;
55368;SDS011;41247;49.736;8.752;2023-11-19T03:33:31;0.68;;;0.68;;
55368;SDS011;41247;49.736;8.752;2023-11-19T03:37:12;1.00;;;0.80;;
55368;SDS011;41247;49.736;8.752;2023-11-19T03:40:54;0.80;;;0.75;;
55368;SDS011;41247;49.736;8.752;2023-11-19T03:44:34;1.15;;;0.70;;
55368;SDS011;41247;49.736;8.752;2023-11-19T03:48:15;1.23;;;0.70;;
55368;SDS011;41247;49.736;8.752;2023-11-19T03:51:56;0.90;;;0.75;;
55368;SDS011;41247;49.736;8.752;2023-11-19T03:55:37;0.80;;;0.70;;
55368;SDS011;41247;49.736;8.752;2023-11-19T03:59:17;0.80;;;0.52;;
55368;SDS011;41247;49.736;8.752;2023-11-19T04:02:58;3.15;;;0.90;;
55368;SDS011;41247;49.736;8.752;2023-11-19T04:06:38;1.70;;;0.85;;
55368;SDS011;41247;49.736;8.752;2023-11-19T04:10:19;3.42;;;0.85;;
55368;SDS011;41247;49.736;8.752;2023-11-19T04:14:00;0.98;;;0.85;;
55368;SDS011;41247;49.736;8.752;2023-11-19T04:17:40;5.07;;;0.90;;
55368;SDS011;41247;49.736;8.752;2023-11-19T04:21:22;2.08;;;1.00;;
55368;SDS011;41247;49.736;8.752;2023-11-19T04:52:54;3.70;;;1.92;;
55368;SDS011;41247;49.736;8.752;2023-11-19T04:56:37;4.43;;;2.50;;
55368;SDS011;41247;49.736;8.752;2023-11-19T05:00:21;4.07;;;2.80;;
55368;SDS011;41247;49.736;8.752;2023-11-19T05:04:04;5.30;;;2.70;;
55368;SDS011;41247;49.736;8.752;2023-11-19T05:07:45;5.15;;;2.70;;
55368;SDS011;41247;49.736;8.752;2023-11-19T05:11:25;8.18;;;3.67;;
55368;SDS011;41247;49.736;8.752;2023-11-19T05:15:09;4.82;;;3.53;;
55368;SDS011;41247;49.736;8.752;2023-11-19T05:38:33;4.65;;;2.80;;
55368;SDS011;41247;49.736;8.752;2023-11-19T05:42:21;5.68;;;3.30;;
55368;SDS011;41247;49.736;8.752;2023-11-19T05:55:21;11.68;;;4.45;;
55368;SDS011;41247;49.736;8.752;2023-11-19T06:15:23;7.55;;;5.13;;
55368;SDS011;41247;49.736;8.752;2023-11-19T06:23:54;5.57;;;3.80;;
55368;SDS011;41247;49.736;8.752;2023-11-19T06:41:45;8.57;;;4.50;;
55368;SDS011;41247;49.736;8.752;2023-11-19T06:45:26;5.72;;;4.32;;
55368;SDS011;41247;49.736;8.752;2023-11-19T06:53:56;10.05;;;6.60;;
55368;SDS011;41247;49.736;8.752;2023-11-19T06:57:37;8.20;;;5.82;;
55368;SDS011;41247;49.736;8.752;2023-11-19T07:01:34;13.30;;;6.78;;
55368;SDS011;41247;49.736;8.752;2023-11-19T07:05:35;15.55;;;7.00;;
55368;SDS011;41247;49.736;8.752;2023-11-19T07:18:18;12.50;;;6.80;;
55368;SDS011;41247;49.736;8.752;2023-11-19T07:22:07;16.02;;;7.35;;
55368;SDS011;41247;49.736;8.752;2023-11-19T07:29:38;12.80;;;7.80;;
55368;SDS011;41247;49.736;8.752;2023-11-19T07:33:18;16.75;;;7.25;;
55368;SDS011;41247;49.736;8.752;2023-11-19T07:36:59;11.07;;;5.90;;
55368;SDS011;41247;49.736;8.752;2023-11-19T07:40:40;8.52;;;4.95;;
55368;SDS011;41247;49.736;8.752;2023-11-19T07:44:21;14.10;;;5.18;;
55368;SDS011;41247;49.736;8.752;2023-11-19T07:48:02;9.68;;;4.85;;
55368;SDS011;41247;49.736;8.752;2023-11-19T07:51:43;11.55;;;4.57;;
55368;SDS011;41247;49.736;8.752;2023-11-19T07:55:23;12.05;;;4.38;;
55368;SDS011;41247;49.736;8.752;2023-11-19T07:59:04;7.40;;;4.22;;
55368;SDS011;41247;49.736;8.752;2023-11-19T08:02:55;6.88;;;3.95;;
55368;SDS011;41247;49.736;8.752;2023-11-19T08:06:36;10.38;;;3.60;;
55368;SDS011;41247;49.736;8.752;2023-11-19T08:10:20;8.25;;;3.78;;
55368;SDS011;41247;49.736;8.752;2023-11-19T08:14:07;5.55;;;3.53;;
55368;SDS011;41247;49.736;8.752;2023-11-19T08:17:48;6.25;;;3.40;;
55368;SDS011;41247;49.736;8.752;2023-11-19T08:21:28;6.90;;;3.15;;
55368;SDS011;41247;49.736;8.752;2023-11-19T08:25:09;5.28;;;3.17;;
55368;SDS011;41247;49.736;8.752;2023-11-19T08:28:57;10.25;;;2.90;;
55368;SDS011;41247;49.736;8.752;2023-11-19T08:32:46;11.13;;;3.10;;
55368;SDS011;41247;49.736;8.752;2023-11-19T08:36:26;4.45;;;2.58;;
55368;SDS011;41247;49.736;8.752;2023-11-19T08:40:07;7.00;;;3.03;;
55368;SDS011;41247;49.736;8.752;2023-11-19T08:43:48;7.22;;;3.00;;
55368;SDS011;41247;49.736;8.752;2023-11-19T08:47:41;8.75;;;2.72;;
55368;SDS011;41247;49.736;8.752;2023-11-19T08:51:36;3.20;;;2.13;;
55368;SDS011;41247;49.736;8.752;2023-11-19T08:55:23;10.07;;;2.20;;
55368;SDS011;41247;49.736;8.752;2023-11-19T08:59:03;4.15;;;1.65;;
55368;SDS011;41247;49.736;8.752;2023-11-19T09:02:54;3.38;;;1.60;;
55368;SDS011;41247;49.736;8.752;2023-11-19T09:10:43;4.15;;;1.80;;
55368;SDS011;41247;49.736;8.752;2023-11-19T09:14:29;4.07;;;1.50;;
55368;SDS011;41247;49.736;8.752;2023-11-19T09:18:15;4.55;;;1.75;;
55368;SDS011;41247;49.736;8.752;2023-11-19T09:21:58;7.50;;;2.28;;
55368;SDS011;41247;49.736;8.752;2023-11-19T09:29:39;4.25;;;1.83;;
55368;SDS011;41247;49.736;8.752;2023-11-19T09:33:26;5.40;;;2.38;;
55368;SDS011;41247;49.736;8.752;2023-11-19T09:37:07;9.20;;;2.67;;
55368;SDS011;41247;49.736;8.752;2023-11-19T09:40:47;7.57;;;2.10;;
55368;SDS011;41247;49.736;8.752;2023-11-19T09:44:31;6.57;;;2.33;;
55368;SDS011;41247;49.736;8.752;2023-11-19T09:48:12;5.57;;;2.05;;
55368;SDS011;41247;49.736;8.752;2023-11-19T09:51:52;5.68;;;2.17;;
55368;SDS011;41247;49.736;8.752;2023-11-19T09:55:36;7.57;;;3.05;;
55368;SDS011;41247;49.736;8.752;2023-11-19T09:59:17;3.85;;;2.17;;
55368;SDS011;41247;49.736;8.752;2023-11-19T10:02:58;5.68;;;2.40;;
55368;SDS011;41247;49.736;8.752;2023-11-19T10:06:40;5.63;;;2.33;;
55368;SDS011;41247;49.736;8.752;2023-11-19T10:10:22;6.32;;;2.58;;
55368;SDS011;41247;49.736;8.752;2023-11-19T10:14:02;4.28;;;1.77;;
55368;SDS011;41247;49.736;8.752;2023-11-19T10:17:43;5.47;;;1.92;;
55368;SDS011;41247;49.736;8.752;2023-11-19T10:21:24;5.85;;;1.90;;
55368;SDS011;41247;49.736;8.752;2023-11-19T10:25:05;9.88;;;2.90;;
55368;SDS011;41247;49.736;8.752;2023-11-19T10:29:05;6.90;;;1.90;;
55368;SDS011;41247;49.736;8.752;2023-11-19T10:33:08;7.80;;;1.90;;
55368;SDS011;41247;49.736;8.752;2023-11-19T10:36:52;6.40;;;1.50;;
55368;SDS011;41247;49.736;8.752;2023-11-19T10:55:58;8.88;;;3.35;;
55368;SDS011;41247;49.736;8.752;2023-11-19T11:10:02;10.25;;;3.20;;
55368;SDS011;41247;49.736;8.752;2023-11-19T11:19:25;7.47;;;2.53;;
55368;SDS011;41247;49.736;8.752;2023-11-19T11:28:18;10.50;;;2.60;;
55368;SDS011;41247;49.736;8.752;2023-11-19T11:32:38;6.20;;;2.33;;
55368;SDS011;41247;49.736;8.752;2023-11-19T11:36:23;13.63;;;2.35;;
55368;SDS011;41247;49.736;8.752;2023-11-19T11:40:17;10.35;;;2.17;;
55368;SDS011;41247;49.736;8.752;2023-11-19T11:48:43;9.98;;;2.67;;
55368;SDS011;41247;49.736;8.752;2023-11-19T11:52:32;12.35;;;3.20;;
55368;SDS011;41247;49.736;8.752;2023-11-19T11:56:16;9.45;;;2.92;;
55368;SDS011;41247;49.736;8.752;2023-11-19T12:00:01;6.93;;;2.22;;
55368;SDS011;41247;49.736;8.752;2023-11-19T12:03:42;6.40;;;2.23;;
55368;SDS011;41247;49.736;8.752;2023-11-19T12:07:24;8.93;;;2.63;;
55368;SDS011;41247;49.736;8.752;2023-11-19T12:11:05;8.48;;;1.88;;
55368;SDS011;41247;49.736;8.752;2023-11-19T12:18:56;9.60;;;1.73;;
55368;SDS011;41247;49.736;8.752;2023-11-19T12:27:23;7.80;;;1.60;;
55368;SDS011;41247;49.736;8.752;2023-11-19T12:31:10;7.35;;;1.45;;
55368;SDS011;41247;49.736;8.752;2023-11-19T12:34:59;6.75;;;1.40;;
55368;SDS011;41247;49.736;8.752;2023-11-19T12:38:42;6.75;;;1.17;;
55368;SDS011;41247;49.736;8.752;2023-11-19T12:42:35;8.68;;;1.23;;
55368;SDS011;41247;49.736;8.752;2023-11-19T12:46:22;8.10;;;1.60;;
55368;SDS011;41247;49.736;8.752;2023-11-19T12:50:03;7.32;;;0.95;;
55368;SDS011;41247;49.736;8.752;2023-11-19T12:53:48;7.45;;;1.08;;
55368;SDS011;41247;49.736;8.752;2023-11-19T12:57:39;7.40;;;1.40;;
55368;SDS011;41247;49.736;8.752;2023-11-19T13:01:21;5.65;;;0.98;;
55368;SDS011;41247;49.736;8.752;2023-11-19T13:05:19;8.13;;;1.00;;
55368;SDS011;41247;49.736;8.752;2023-11-19T13:09:26;8.60;;;1.25;;
55368;SDS011;41247;49.736;8.752;2023-11-19T13:13:08;6.25;;;0.95;;
55368;SDS011;41247;49.736;8.752;2023-11-19T13:16:48;6.10;;;1.80;;
55368;SDS011;41247;49.736;8.752;2023-11-19T13:20:29;8.35;;;1.42;;
55368;SDS011;41247;49.736;8.752;2023-11-19T13:24:10;9.88;;;1.20;;
55368;SDS011;41247;49.736;8.752;2023-11-19T13:27:51;4.22;;;1.13;;
55368;SDS011;41247;49.736;8.752;2023-11-19T13:31:32;11.23;;;1.20;;
55368;SDS011;41247;49.736;8.752;2023-11-19T13:35:13;9.63;;;1.13;;
55368;SDS011;41247;49.736;8.752;2023-11-19T13:38:54;4.45;;;1.40;;
55368;SDS011;41247;49.736;8.752;2023-11-19T13:42:38;6.05;;;1.17;;
55368;SDS011;41247;49.736;8.752;2023-11-19T13:46:19;5.13;;;1.10;;
55368;SDS011;41247;49.736;8.752;2023-11-19T13:50:00;7.60;;;1.48;;
55368;SDS011;41247;49.736;8.752;2023-11-19T13:53:41;8.40;;;1.30;;
55368;SDS011;41247;49.736;8.752;2023-11-19T13:57:21;4.53;;;0.82;;
55368;SDS011;41247;49.736;8.752;2023-11-19T14:01:03;4.35;;;1.00;;
55368;SDS011;41247;49.736;8.752;2023-11-19T14:04:44;5.45;;;1.20;;
55368;SDS011;41247;49.736;8.752;2023-11-19T14:08:24;6.38;;;1.17;;
55368;SDS011;41247;49.736;8.752;2023-11-19T14:12:05;3.47;;;0.95;;
55368;SDS011;41247;49.736;8.752;2023-11-19T14:15:46;6.93;;;1.58;;
55368;SDS011;41247;49.736;8.752;2023-11-19T14:19:26;7.40;;;2.00;;
55368;SDS011;41247;49.736;8.752;2023-11-19T14:23:07;8.05;;;2.08;;
55368;SDS011;41247;49.736;8.752;2023-11-19T14:26:47;8.77;;;1.20;;
55368;SDS011;41247;49.736;8.752;2023-11-19T14:30:28;6.30;;;1.13;;
55368;SDS011;41247;49.736;8.752;2023-11-19T14:34:08;10.40;;;1.52;;
55368;SDS011;41247;49.736;8.752;2023-11-19T14:37:49;5.22;;;1.30;;
55368;SDS011;41247;49.736;8.752;2023-11-19T14:41:33;10.30;;;1.50;;
55368;SDS011;41247;49.736;8.752;2023-11-19T14:45:13;7.78;;;1.52;;
55368;SDS011;41247;49.736;8.752;2023-11-19T14:48:54;5.35;;;1.40;;
55368;SDS011;41247;49.736;8.752;2023-11-19T14:52:35;5.97;;;1.10;;
55368;SDS011;41247;49.736;8.752;2023-11-19T14:56:16;6.10;;;1.30;;
55368;SDS011;41247;49.736;8.752;2023-11-19T14:59:56;5.22;;;1.23;;
55368;SDS011;41247;49.736;8.752;2023-11-19T15:03:37;5.93;;;1.25;;
55368;SDS011;41247;49.736;8.752;2023-11-19T15:07:18;9.23;;;1.60;;
55368;SDS011;41247;49.736;8.752;2023-11-19T15:10:58;3.90;;;1.10;;
55368;SDS011;41247;49.736;8.752;2023-11-19T15:14:39;9.88;;;1.45;;
55368;SDS011;41247;49.736;8.752;2023-11-19T15:22:04;6.07;;;1.13;;
55368;SDS011;41247;49.736;8.752;2023-11-19T15:25:45;8.50;;;1.58;;
55368;SDS011;41247;49.736;8.752;2023-11-19T15:29:25;6.30;;;1.00;;
55368;SDS011;41247;49.736;8.752;2023-11-19T15:36:50;7.28;;;1.30;;
55368;SDS011;41247;49.736;8.752;2023-11-19T15:40:30;6.88;;;1.10;;
55368;SDS011;41247;49.736;8.752;2023-11-19T15:44:11;7.22;;;1.00;;
55368;SDS011;41247;49.736;8.752;2023-11-19T15:47:52;6.10;;;1.17;;
55368;SDS011;41247;49.736;8.752;2023-11-19T15:51:32;5.88;;;1.20;;
55368;SDS011;41247;49.736;8.752;2023-11-19T15:55:13;8.65;;;1.10;;
55368;SDS011;41247;49.736;8.752;2023-11-19T15:58:53;6.25;;;1.20;;
55368;SDS011;41247;49.736;8.752;2023-11-19T16:02:34;6.88;;;1.50;;
55368;SDS011;41247;49.736;8.752;2023-11-19T16:06:15;5.75;;;1.23;;
55368;SDS011;41247;49.736;8.752;2023-11-19T16:09:55;11.95;;;1.52;;
55368;SDS011;41247;49.736;8.752;2023-11-19T16:13:36;6.25;;;1.30;;
55368;SDS011;41247;49.736;8.752;2023-11-19T16:17:17;8.52;;;1.60;;
